sensor_id;sensor_type;location;lat;lon;timestamp;pressure;altitude;pressure_sealevel;temperature;humidity
49583;BME280;36329;48.816;44.624;2023-08-06T08:47:01;100813;;;40.3;23.7
49583;BME280;36329;48.816;44.624;2023-08-06T08:50:05;100810;;;40;24.4
49583;BME280;36329;48.816;44.624;2023-08-06T08:53:08;100804;;;39.9;24
49583;BME280;36329;48.816;44.624;2023-08-06T08:56:12;100800;;;40.3;23.8
49583;BME280;36329;48.816;44.624;2023-08-06T08:59:14;100796;;;40.3;23.6
49583;BME280;36329;48.816;44.624;2023-08-06T09:02:16;100793;;;40.5;23
49583;BME280;36329;48.816;44.624;2023-08-06T09:05:20;100779;;;40.6;23
49583;BME280;36329;48.816;44.624;2023-08-06T09:08:27;100779;;;40.7;23.5
49583;BME280;36329;48.816;44.624;2023-08-06T09:11:35;100779;;;40.5;22.4
49583;BME280;36329;48.816;44.624;2023-08-06T09:14:38;100785;;;40.2;23.1
49583;BME280;36329;48.816;44.624;2023-08-06T09:17:40;100775;;;40.5;22.9
49583;BME280;36329;48.816;44.624;2023-08-06T09:20:42;100740;;;40.8;22.4
49583;BME280;36329;48.816;44.624;2023-08-06T09:23:44;100761;;;40.8;22.3
49583;BME280;36329;48.816;44.624;2023-08-06T09:26:46;100760;;;41.1;22.2
49583;BME280;36329;48.816;44.624;2023-08-06T09:29:48;100759;;;41.3;21.9
49583;BME280;36329;48.816;44.624;2023-08-06T09:32:51;100753;;;41.4;21.9
49583;BME280;36329;48.816;44.624;2023-08-06T09:35:53;100753;;;41.3;21.9
49583;BME280;36329;48.816;44.624;2023-08-06T09:38:55;100750;;;40.8;22.4
49583;BME280;36329;48.816;44.624;2023-08-06T09:41:58;100746;;;40.8;22.5
49583;BME280;36329;48.816;44.624;2023-08-06T09:45:06;100741;;;40.9;22.7
49583;BME280;36329;48.816;44.624;2023-08-06T09:48:09;100734;;;40.8;21.8
49583;BME280;36329;48.816;44.624;2023-08-06T09:51:13;100739;;;40.7;21.3
49583;BME280;36329;48.816;44.624;2023-08-06T09:54:16;100727;;;40.6;22.1
49583;BME280;36329;48.816;44.624;2023-08-06T09:57:19;100734;;;40.4;22.3
49583;BME280;36329;48.816;44.624;2023-08-06T10:00:22;100727;;;40.5;21.8
49583;BME280;36329;48.816;44.624;2023-08-06T10:03:24;100717;;;40.5;22.5
49583;BME280;36329;48.816;44.624;2023-08-06T10:06:31;100712;;;40.4;22.5
49583;BME280;36329;48.816;44.624;2023-08-06T10:09:36;100707;;;40.3;21.9
49583;BME280;36329;48.816;44.624;2023-08-06T10:12:40;100711;;;40.7;22
49583;BME280;36329;48.816;44.624;2023-08-06T10:15:45;100707;;;40.7;21.9
49583;BME280;36329;48.816;44.624;2023-08-06T10:18:48;100705;;;40.6;21.4
49583;BME280;36329;48.816;44.624;2023-08-06T10:22:08;100697;;;40.5;21.6
49583;BME280;36329;48.816;44.624;2023-08-06T10:25:16;100688;;;40.7;21.3
49583;BME280;36329;48.816;44.624;2023-08-06T10:28:19;100685;;;40.6;21.2
49583;BME280;36329;48.816;44.624;2023-08-06T10:34:54;100680;;;40.2;21.9
49583;BME280;36329;48.816;44.624;2023-08-06T10:37:58;100681;;;40.4;21.9
49583;BME280;36329;48.816;44.624;2023-08-06T10:41:02;100678;;;40.5;22.3
49583;BME280;36329;48.816;44.624;2023-08-06T10:44:06;100674;;;40.4;21.2
49583;BME280;36329;48.816;44.624;2023-08-06T10:50:35;100673;;;40.2;21.8
49583;BME280;36329;48.816;44.624;2023-08-06T10:53:37;100664;;;40.2;22.1
49583;BME280;36329;48.816;44.624;2023-08-06T10:56:40;100659;;;40.4;22.1
49583;BME280;36329;48.816;44.624;2023-08-06T10:59:42;100650;;;40.3;21.2
49583;BME280;36329;48.816;44.624;2023-08-06T11:02:47;100647;;;40.3;22
49583;BME280;36329;48.816;44.624;2023-08-06T11:05:49;100644;;;39.8;22.7
49583;BME280;36329;48.816;44.624;2023-08-06T11:08:53;100648;;;39.8;23
49583;BME280;36329;48.816;44.624;2023-08-06T11:11:55;100643;;;39.6;23.5
49583;BME280;36329;48.816;44.624;2023-08-06T11:14:57;100639;;;39.5;23.8
49583;BME280;36329;48.816;44.624;2023-08-06T11:17:59;100634;;;39.5;24
49583;BME280;36329;48.816;44.624;2023-08-06T11:21:02;100630;;;39.3;23.7
49583;BME280;36329;48.816;44.624;2023-08-06T11:24:04;100626;;;39.2;23.4
49583;BME280;36329;48.816;44.624;2023-08-06T11:27:11;100625;;;39.2;23.1
49583;BME280;36329;48.816;44.624;2023-08-06T11:30:14;100616;;;39.1;23.3
49583;BME280;36329;48.816;44.624;2023-08-06T11:33:20;100619;;;39;23.4
49583;BME280;36329;48.816;44.624;2023-08-06T11:36:30;100610;;;39;23.2
49583;BME280;36329;48.816;44.624;2023-08-06T11:39:33;100612;;;39;24.1
49583;BME280;36329;48.816;44.624;2023-08-06T11:42:36;100609;;;38.5;24.1
49583;BME280;36329;48.816;44.624;2023-08-06T11:45:38;100610;;;38.5;25
49583;BME280;36329;48.816;44.624;2023-08-06T11:48:51;100596;;;38.4;25.2
49583;BME280;36329;48.816;44.624;2023-08-06T11:51:54;100598;;;38.2;25.5
49583;BME280;36329;48.816;44.624;2023-08-06T11:55:05;100594;;;38.2;25.7
49583;BME280;36329;48.816;44.624;2023-08-06T11:58:09;100596;;;38.3;25.2
49583;BME280;36329;48.816;44.624;2023-08-06T12:01:11;100588;;;38.3;24.4
49583;BME280;36329;48.816;44.624;2023-08-06T12:04:13;100584;;;38.3;24.3
49583;BME280;36329;48.816;44.624;2023-08-06T12:07:15;100580;;;38.3;24.4
49583;BME280;36329;48.816;44.624;2023-08-06T12:10:19;100587;;;38.3;24.9
49583;BME280;36329;48.816;44.624;2023-08-06T12:13:21;100576;;;38.3;26
49583;BME280;36329;48.816;44.624;2023-08-06T12:16:23;100565;;;38.1;25.9
49583;BME280;36329;48.816;44.624;2023-08-06T12:19:25;100571;;;37.8;26.7
49583;BME280;36329;48.816;44.624;2023-08-06T12:22:27;100569;;;37.7;26.5
49583;BME280;36329;48.816;44.624;2023-08-06T12:25:29;100561;;;37.6;27.1
49583;BME280;36329;48.816;44.624;2023-08-06T12:28:31;100561;;;37.5;26.4
49583;BME280;36329;48.816;44.624;2023-08-06T12:31:34;100566;;;37;28.3
49583;BME280;36329;48.816;44.624;2023-08-06T12:34:37;100549;;;36.9;29.3
49583;BME280;36329;48.816;44.624;2023-08-06T12:37:39;100548;;;37;28.9
49583;BME280;36329;48.816;44.624;2023-08-06T12:40:41;100546;;;37.1;28.9
49583;BME280;36329;48.816;44.624;2023-08-06T12:43:43;100544;;;37.2;27.2
49583;BME280;36329;48.816;44.624;2023-08-06T12:46:46;100543;;;37.3;26.8
49583;BME280;36329;48.816;44.624;2023-08-06T12:49:48;100542;;;37.1;27.1
49583;BME280;36329;48.816;44.624;2023-08-06T12:52:50;100547;;;37.1;27.3
49583;BME280;36329;48.816;44.624;2023-08-06T12:55:52;100540;;;37.2;27.4
49583;BME280;36329;48.816;44.624;2023-08-06T12:58:54;100534;;;37.3;27.3
49583;BME280;36329;48.816;44.624;2023-08-06T13:01:56;100527;;;37.3;27.4
49583;BME280;36329;48.816;44.624;2023-08-06T13:04:58;100533;;;37.2;28
49583;BME280;36329;48.816;44.624;2023-08-06T13:08:00;100521;;;37.1;28.7
49583;BME280;36329;48.816;44.624;2023-08-06T13:11:02;100527;;;36.8;29.1
49583;BME280;36329;48.816;44.624;2023-08-06T13:14:05;100522;;;36.8;29.6
49583;BME280;36329;48.816;44.624;2023-08-06T13:17:07;100518;;;36.6;30.9
49583;BME280;36329;48.816;44.624;2023-08-06T13:20:09;100515;;;36.6;30.6
49583;BME280;36329;48.816;44.624;2023-08-06T13:23:12;100523;;;36.5;31.3
49583;BME280;36329;48.816;44.624;2023-08-06T13:26:13;100515;;;36.3;32.8
49583;BME280;36329;48.816;44.624;2023-08-06T13:29:15;100506;;;36.1;32.7
49583;BME280;36329;48.816;44.624;2023-08-06T13:32:17;100509;;;36.2;31.9
49583;BME280;36329;48.816;44.624;2023-08-06T13:35:19;100511;;;36.3;31.1
49583;BME280;36329;48.816;44.624;2023-08-06T13:38:21;100511;;;36.3;30.1
49583;BME280;36329;48.816;44.624;2023-08-06T13:41:23;100503;;;36.4;29.1
49583;BME280;36329;48.816;44.624;2023-08-06T13:44:25;100497;;;36.6;27.9
49583;BME280;36329;48.816;44.624;2023-08-06T13:47:27;100494;;;36.6;28.1
49583;BME280;36329;48.816;44.624;2023-08-06T13:50:29;100497;;;36.7;28.5
49583;BME280;36329;48.816;44.624;2023-08-06T13:53:31;100498;;;36.6;29.1
49583;BME280;36329;48.816;44.624;2023-08-06T13:56:34;100501;;;36.5;30.1
49583;BME280;36329;48.816;44.624;2023-08-06T13:59:37;100499;;;36.4;30.8
49583;BME280;36329;48.816;44.624;2023-08-06T14:02:39;100495;;;36.2;30.8
49583;BME280;36329;48.816;44.624;2023-08-06T14:05:42;100491;;;36;29.2
49583;BME280;36329;48.816;44.624;2023-08-06T14:08:44;100484;;;36;30
49583;BME280;36329;48.816;44.624;2023-08-06T14:11:46;100479;;;36;30.3
49583;BME280;36329;48.816;44.624;2023-08-06T14:14:48;100482;;;36.1;30.8
49583;BME280;36329;48.816;44.624;2023-08-06T14:17:50;100480;;;36.2;30.6
49583;BME280;36329;48.816;44.624;2023-08-06T14:20:52;100475;;;36.2;30.8
49583;BME280;36329;48.816;44.624;2023-08-06T14:23:54;100470;;;36.1;30.8
49583;BME280;36329;48.816;44.624;2023-08-06T14:26:56;100475;;;35.9;31.6
49583;BME280;36329;48.816;44.624;2023-08-06T14:29:58;100469;;;35.6;33.3
49583;BME280;36329;48.816;44.624;2023-08-06T14:33:00;100477;;;35.4;33.8
49583;BME280;36329;48.816;44.624;2023-08-06T14:36:02;100467;;;35.4;34.4
49583;BME280;36329;48.816;44.624;2023-08-06T14:39:04;100473;;;35.4;34.2
49583;BME280;36329;48.816;44.624;2023-08-06T14:42:06;100480;;;35.3;34.2
49583;BME280;36329;48.816;44.624;2023-08-06T14:45:08;100475;;;35.2;34.4
49583;BME280;36329;48.816;44.624;2023-08-06T14:48:10;100475;;;35.2;34
49583;BME280;36329;48.816;44.624;2023-08-06T14:51:12;100475;;;35.2;34.1
49583;BME280;36329;48.816;44.624;2023-08-06T14:54:14;100471;;;35.2;34
49583;BME280;36329;48.816;44.624;2023-08-06T14:57:15;100470;;;35.2;33.9
49583;BME280;36329;48.816;44.624;2023-08-06T15:00:18;100475;;;35.2;33.9
49583;BME280;36329;48.816;44.624;2023-08-06T15:03:20;100472;;;35.1;33.9
49583;BME280;36329;48.816;44.624;2023-08-06T15:06:22;100473;;;35;33.6
49583;BME280;36329;48.816;44.624;2023-08-06T15:09:24;100474;;;35;34.5
49583;BME280;36329;48.816;44.624;2023-08-06T15:12:26;100477;;;34.8;34.6
49583;BME280;36329;48.816;44.624;2023-08-06T15:15:28;100474;;;34.6;34.9
49583;BME280;36329;48.816;44.624;2023-08-06T15:18:30;100468;;;34.5;35.5
49583;BME280;36329;48.816;44.624;2023-08-06T15:21:32;100470;;;34.4;35.5
49583;BME280;36329;48.816;44.624;2023-08-06T15:24:34;100471;;;34.3;36.1
49583;BME280;36329;48.816;44.624;2023-08-06T15:27:36;100471;;;34.3;36.7
49583;BME280;36329;48.816;44.624;2023-08-06T15:30:38;100466;;;34.2;37.7
49583;BME280;36329;48.816;44.624;2023-08-06T15:33:40;100463;;;34.2;36.8
49583;BME280;36329;48.816;44.624;2023-08-06T15:36:42;100467;;;34.1;36.8
49583;BME280;36329;48.816;44.624;2023-08-06T15:39:44;100472;;;34.1;37.5
49583;BME280;36329;48.816;44.624;2023-08-06T15:42:46;100467;;;34;38.3
49583;BME280;36329;48.816;44.624;2023-08-06T15:45:48;100470;;;33.9;38.6
49583;BME280;36329;48.816;44.624;2023-08-06T15:48:50;100468;;;33.8;39.4
49583;BME280;36329;48.816;44.624;2023-08-06T15:51:52;100475;;;33.8;38.4
49583;BME280;36329;48.816;44.624;2023-08-06T15:54:54;100471;;;33.8;37.7
49583;BME280;36329;48.816;44.624;2023-08-06T15:57:56;100466;;;33.8;37.4
49583;BME280;36329;48.816;44.624;2023-08-06T16:00:58;100476;;;33.8;37.3
49583;BME280;36329;48.816;44.624;2023-08-06T16:04:00;100467;;;33.8;37.5
49583;BME280;36329;48.816;44.624;2023-08-06T16:07:04;100463;;;33.8;37.4
49583;BME280;36329;48.816;44.624;2023-08-06T16:10:06;100459;;;33.7;37.1
49583;BME280;36329;48.816;44.624;2023-08-06T16:13:08;100464;;;33.7;37
49583;BME280;36329;48.816;44.624;2023-08-06T16:16:10;100462;;;33.7;37
49583;BME280;36329;48.816;44.624;2023-08-06T16:19:12;100468;;;33.7;37.1
49583;BME280;36329;48.816;44.624;2023-08-06T16:22:14;100472;;;33.6;37.2
49583;BME280;36329;48.816;44.624;2023-08-06T16:25:16;100480;;;33.6;37
49583;BME280;36329;48.816;44.624;2023-08-06T16:28:18;100474;;;33.5;37.5
49583;BME280;36329;48.816;44.624;2023-08-06T16:31:20;100478;;;33.5;38.3
49583;BME280;36329;48.816;44.624;2023-08-06T16:34:22;100481;;;33.3;39
49583;BME280;36329;48.816;44.624;2023-08-06T16:37:24;100489;;;33.3;39.4
49583;BME280;36329;48.816;44.624;2023-08-06T16:40:26;100489;;;33.3;39.8
49583;BME280;36329;48.816;44.624;2023-08-06T16:43:28;100488;;;33.2;39.9
49583;BME280;36329;48.816;44.624;2023-08-06T16:46:30;100482;;;33.1;39.3
49583;BME280;36329;48.816;44.624;2023-08-06T16:49:32;100481;;;33;39.2
49583;BME280;36329;48.816;44.624;2023-08-06T16:52:34;100485;;;33;38.8
49583;BME280;36329;48.816;44.624;2023-08-06T16:55:36;100488;;;33;38.8
49583;BME280;36329;48.816;44.624;2023-08-06T16:58:38;100491;;;32.9;39.2
49583;BME280;36329;48.816;44.624;2023-08-06T17:01:42;100493;;;32.9;39.3
49583;BME280;36329;48.816;44.624;2023-08-06T17:04:46;100502;;;32.8;40.1
49583;BME280;36329;48.816;44.624;2023-08-06T17:08:01;100508;;;32.7;40.8
49583;BME280;36329;48.816;44.624;2023-08-06T17:11:09;100505;;;32.6;41.7
49583;BME280;36329;48.816;44.624;2023-08-06T17:14:16;100510;;;32.5;42.7
49583;BME280;36329;48.816;44.624;2023-08-06T17:17:22;100500;;;32.3;43.6
49583;BME280;36329;48.816;44.624;2023-08-06T17:20:25;100501;;;32.2;44
49583;BME280;36329;48.816;44.624;2023-08-06T17:23:30;100513;;;32.2;44.1
49583;BME280;36329;48.816;44.624;2023-08-06T17:26:36;100515;;;32;43.9
49583;BME280;36329;48.816;44.624;2023-08-06T17:29:39;100514;;;31.8;45.6
49583;BME280;36329;48.816;44.624;2023-08-06T17:32:42;100515;;;31.7;45.8
49583;BME280;36329;48.816;44.624;2023-08-06T17:35:44;100513;;;31.6;45.7
49583;BME280;36329;48.816;44.624;2023-08-06T17:38:47;100515;;;31.7;45.6
49583;BME280;36329;48.816;44.624;2023-08-06T17:41:49;100516;;;31.8;45.6
49583;BME280;36329;48.816;44.624;2023-08-06T17:44:51;100512;;;31.7;46.2
49583;BME280;36329;48.816;44.624;2023-08-06T17:47:55;100517;;;31.6;47
49583;BME280;36329;48.816;44.624;2023-08-06T17:50:58;100508;;;31.4;48.3
49583;BME280;36329;48.816;44.624;2023-08-06T17:54:01;100498;;;31.4;48.2
49583;BME280;36329;48.816;44.624;2023-08-06T17:57:05;100493;;;31.4;48.4
49583;BME280;36329;48.816;44.624;2023-08-06T18:00:08;100501;;;31.4;49
49583;BME280;36329;48.816;44.624;2023-08-06T18:03:11;100495;;;31.3;48.9
49583;BME280;36329;48.816;44.624;2023-08-06T18:06:15;100492;;;31.3;49.3
49583;BME280;36329;48.816;44.624;2023-08-06T18:09:18;100492;;;31.1;49.8
49583;BME280;36329;48.816;44.624;2023-08-06T18:12:20;100501;;;31;50
49583;BME280;36329;48.816;44.624;2023-08-06T18:15:22;100496;;;31.1;50.2
49583;BME280;36329;48.816;44.624;2023-08-06T18:18:25;100495;;;31;50.9
49583;BME280;36329;48.816;44.624;2023-08-06T18:21:27;100496;;;31;50.9
49583;BME280;36329;48.816;44.624;2023-08-06T18:24:29;100493;;;30.9;50.7
49583;BME280;36329;48.816;44.624;2023-08-06T18:27:32;100496;;;30.8;50.6
49583;BME280;36329;48.816;44.624;2023-08-06T18:30:34;100496;;;30.7;50.6
49583;BME280;36329;48.816;44.624;2023-08-06T18:33:37;100499;;;30.7;51
49583;BME280;36329;48.816;44.624;2023-08-06T18:36:39;100497;;;30.6;51.3
49583;BME280;36329;48.816;44.624;2023-08-06T18:39:41;100495;;;30.6;51.4
49583;BME280;36329;48.816;44.624;2023-08-06T18:42:43;100495;;;30.6;51.5
49583;BME280;36329;48.816;44.624;2023-08-06T18:45:46;100490;;;30.5;51.6
49583;BME280;36329;48.816;44.624;2023-08-06T18:48:48;100482;;;30.4;51.6
49583;BME280;36329;48.816;44.624;2023-08-06T18:51:50;100481;;;30.5;51.8
49583;BME280;36329;48.816;44.624;2023-08-06T18:54:52;100486;;;30.5;51.9
49583;BME280;36329;48.816;44.624;2023-08-06T18:57:54;100486;;;30.3;52.7
49583;BME280;36329;48.816;44.624;2023-08-06T19:00:57;100485;;;30.3;53.1
49583;BME280;36329;48.816;44.624;2023-08-06T19:03:59;100480;;;30.1;53.4
49583;BME280;36329;48.816;44.624;2023-08-06T19:07:01;100484;;;30;54
49583;BME280;36329;48.816;44.624;2023-08-06T19:10:03;100484;;;29.9;54.5
49583;BME280;36329;48.816;44.624;2023-08-06T19:13:07;100480;;;30;54.3
49583;BME280;36329;48.816;44.624;2023-08-06T19:16:10;100483;;;30;54.4
49583;BME280;36329;48.816;44.624;2023-08-06T19:19:12;100486;;;30;54
49583;BME280;36329;48.816;44.624;2023-08-06T19:22:14;100490;;;30;53.9
49583;BME280;36329;48.816;44.624;2023-08-06T19:25:16;100491;;;30;53.6
49583;BME280;36329;48.816;44.624;2023-08-06T19:28:19;100488;;;30.1;53.2
49583;BME280;36329;48.816;44.624;2023-08-06T19:31:21;100484;;;30.1;53.3
49583;BME280;36329;48.816;44.624;2023-08-06T19:34:23;100491;;;30;53.8
49583;BME280;36329;48.816;44.624;2023-08-06T19:37:26;100486;;;29.8;55
49583;BME280;36329;48.816;44.624;2023-08-06T19:40:29;100484;;;29.9;55.3
49583;BME280;36329;48.816;44.624;2023-08-06T19:43:31;100489;;;29.6;56.3
49583;BME280;36329;48.816;44.624;2023-08-06T19:46:33;100484;;;29.6;56.8
49583;BME280;36329;48.816;44.624;2023-08-06T19:49:35;100490;;;29.4;57.1
49583;BME280;36329;48.816;44.624;2023-08-06T19:52:37;100493;;;29.4;57.1
49583;BME280;36329;48.816;44.624;2023-08-06T19:55:39;100489;;;29.5;56.9
49583;BME280;36329;48.816;44.624;2023-08-06T19:58:42;100481;;;29.6;56.7
49583;BME280;36329;48.816;44.624;2023-08-06T20:01:45;100482;;;29.5;56.6
49583;BME280;36329;48.816;44.624;2023-08-06T20:04:47;100484;;;29.6;56.7
49583;BME280;36329;48.816;44.624;2023-08-06T20:07:49;100481;;;29.4;57.6
49583;BME280;36329;48.816;44.624;2023-08-06T20:10:51;100479;;;29.3;57.5
49583;BME280;36329;48.816;44.624;2023-08-06T20:13:53;100484;;;29.4;57
49583;BME280;36329;48.816;44.624;2023-08-06T20:16:55;100480;;;29.3;57.6
49583;BME280;36329;48.816;44.624;2023-08-06T20:19:58;100479;;;29.3;57.3
49583;BME280;36329;48.816;44.624;2023-08-06T20:23:00;100482;;;29.4;57.5
49583;BME280;36329;48.816;44.624;2023-08-06T20:26:02;100485;;;29.4;57.5
49583;BME280;36329;48.816;44.624;2023-08-06T20:29:04;100494;;;29.4;57.4
49583;BME280;36329;48.816;44.624;2023-08-06T20:32:06;100496;;;29.2;58.5
49583;BME280;36329;48.816;44.624;2023-08-06T20:35:08;100497;;;29;58.9
49583;BME280;36329;48.816;44.624;2023-08-06T20:38:10;100499;;;29;59.6
49583;BME280;36329;48.816;44.624;2023-08-06T20:41:13;100499;;;28.8;59.9
49583;BME280;36329;48.816;44.624;2023-08-06T20:44:15;100499;;;28.7;60.6
49583;BME280;36329;48.816;44.624;2023-08-06T20:47:17;100499;;;28.7;60.8
49583;BME280;36329;48.816;44.624;2023-08-06T20:50:19;100497;;;28.7;60.8
49583;BME280;36329;48.816;44.624;2023-08-06T20:53:21;100500;;;28.6;60.8
49583;BME280;36329;48.816;44.624;2023-08-06T20:56:23;100498;;;28.7;60.3
49583;BME280;36329;48.816;44.624;2023-08-06T20:59:25;100500;;;28.7;60.3
49583;BME280;36329;48.816;44.624;2023-08-06T21:02:27;100499;;;28.7;59
49583;BME280;36329;48.816;44.624;2023-08-06T21:05:29;100504;;;28.7;59.1
49583;BME280;36329;48.816;44.624;2023-08-06T21:08:32;100495;;;28.6;58.7
49583;BME280;36329;48.816;44.624;2023-08-06T21:11:34;100497;;;28.6;58.1
49583;BME280;36329;48.816;44.624;2023-08-06T21:14:36;100502;;;28.6;58.2
49583;BME280;36329;48.816;44.624;2023-08-06T21:17:38;100495;;;28.5;57.4
49583;BME280;36329;48.816;44.624;2023-08-06T21:20:40;100493;;;28.6;57.3
49583;BME280;36329;48.816;44.624;2023-08-06T21:23:42;100493;;;28.5;57.4
49583;BME280;36329;48.816;44.624;2023-08-06T21:26:44;100497;;;28.6;57.2
49583;BME280;36329;48.816;44.624;2023-08-06T21:29:46;100493;;;28.6;57.1
49583;BME280;36329;48.816;44.624;2023-08-06T21:32:48;100500;;;28.6;57.1
49583;BME280;36329;48.816;44.624;2023-08-06T21:35:51;100497;;;28.5;57.2
49583;BME280;36329;48.816;44.624;2023-08-06T21:38:53;100506;;;28.5;57.7
49583;BME280;36329;48.816;44.624;2023-08-06T21:41:55;100498;;;28.5;58.1
49583;BME280;36329;48.816;44.624;2023-08-06T21:44:57;100502;;;28.5;57.5
49583;BME280;36329;48.816;44.624;2023-08-06T21:47:59;100504;;;28.4;58.1
49583;BME280;36329;48.816;44.624;2023-08-06T21:51:01;100510;;;28.5;58.4
49583;BME280;36329;48.816;44.624;2023-08-06T21:54:04;100506;;;28.3;59.6
49583;BME280;36329;48.816;44.624;2023-08-06T21:57:06;100512;;;28.3;59.5
49583;BME280;36329;48.816;44.624;2023-08-06T22:00:09;100506;;;28.2;59.5
49583;BME280;36329;48.816;44.624;2023-08-06T22:03:10;100512;;;28.3;59.5
49583;BME280;36329;48.816;44.624;2023-08-06T22:06:13;100519;;;28.3;60
49583;BME280;36329;48.816;44.624;2023-08-06T22:09:15;100519;;;28.3;60.9
49583;BME280;36329;48.816;44.624;2023-08-06T22:12:17;100520;;;28.3;60.6
49583;BME280;36329;48.816;44.624;2023-08-06T22:15:19;100518;;;28.3;60.9
49583;BME280;36329;48.816;44.624;2023-08-06T22:18:21;100525;;;28.2;61.1
49583;BME280;36329;48.816;44.624;2023-08-06T22:21:23;100522;;;28.2;61.2
49583;BME280;36329;48.816;44.624;2023-08-06T22:24:26;100523;;;28.2;60.7
49583;BME280;36329;48.816;44.624;2023-08-06T22:27:28;100523;;;28.1;61.1
49583;BME280;36329;48.816;44.624;2023-08-06T22:30:30;100528;;;28.1;60.6
49583;BME280;36329;48.816;44.624;2023-08-06T22:33:32;100527;;;28.1;60.6
49583;BME280;36329;48.816;44.624;2023-08-06T22:36:34;100530;;;28.1;60.6
49583;BME280;36329;48.816;44.624;2023-08-06T22:39:36;100520;;;28;60.3
49583;BME280;36329;48.816;44.624;2023-08-06T22:42:38;100531;;;28;59.9
49583;BME280;36329;48.816;44.624;2023-08-06T22:45:40;100536;;;28;59.9
49583;BME280;36329;48.816;44.624;2023-08-06T22:48:42;100535;;;28;59.4
49583;BME280;36329;48.816;44.624;2023-08-06T22:51:44;100535;;;28.1;58.9
49583;BME280;36329;48.816;44.624;2023-08-06T22:54:46;100535;;;28.2;58.3
49583;BME280;36329;48.816;44.624;2023-08-06T22:57:48;100536;;;28.2;58
49583;BME280;36329;48.816;44.624;2023-08-06T23:00:50;100529;;;28.2;57.4
49583;BME280;36329;48.816;44.624;2023-08-06T23:03:52;100525;;;28.1;57.8
49583;BME280;36329;48.816;44.624;2023-08-06T23:06:54;100529;;;28.1;57.5
49583;BME280;36329;48.816;44.624;2023-08-06T23:09:56;100526;;;28.2;57.3
49583;BME280;36329;48.816;44.624;2023-08-06T23:12:58;100523;;;28.1;57.9
49583;BME280;36329;48.816;44.624;2023-08-06T23:16:00;100526;;;28.1;58.2
49583;BME280;36329;48.816;44.624;2023-08-06T23:19:02;100528;;;28;58.5
49583;BME280;36329;48.816;44.624;2023-08-06T23:22:05;100521;;;28;59
49583;BME280;36329;48.816;44.624;2023-08-06T23:25:08;100516;;;27.8;59.6
49583;BME280;36329;48.816;44.624;2023-08-06T23:31:56;100509;;;27.6;60.8
49583;BME280;36329;48.816;44.624;2023-08-06T23:34:58;100510;;;27.5;61.1
49583;BME280;36329;48.816;44.624;2023-08-06T23:38:00;100512;;;27.5;60.9
49583;BME280;36329;48.816;44.624;2023-08-06T23:41:02;100509;;;27.6;60.3
49583;BME280;36329;48.816;44.624;2023-08-06T23:44:04;100504;;;27.7;60
49583;BME280;36329;48.816;44.624;2023-08-06T23:47:06;100502;;;27.8;60.1
49583;BME280;36329;48.816;44.624;2023-08-06T23:50:08;100500;;;27.8;59.7
49583;BME280;36329;48.816;44.624;2023-08-06T23:53:10;100499;;;27.7;60
49583;BME280;36329;48.816;44.624;2023-08-06T23:56:12;100499;;;27.6;60.2
49583;BME280;36329;48.816;44.624;2023-08-06T23:59:14;100485;;;27.5;60.2
